createdAt,value
2018-04-06T04:00:42.865Z,1017.1
2018-04-06T04:01:08.365Z,1017.11
2018-04-06T04:01:33.867Z,1017.12
2018-04-06T04:01:59.366Z,1017.11
2018-04-06T04:02:24.890Z,1017.14
2018-04-06T04:02:50.352Z,1017.13
2018-04-06T04:03:15.850Z,1017.16
2018-04-06T04:03:41.380Z,1017.14
2018-04-06T04:04:06.886Z,1017.16
2018-04-06T04:04:32.388Z,1017.17
2018-04-06T04:04:57.887Z,1017.15
2018-04-06T04:05:23.371Z,1017.12
2018-04-06T04:05:48.883Z,1017.17
2018-04-06T04:06:14.379Z,1017.17
2018-04-06T04:06:39.876Z,1017.17
2018-04-06T04:07:05.381Z,1017.11
2018-04-06T04:07:30.907Z,1017.11
2018-04-06T04:07:56.432Z,1017.16
2018-04-06T04:08:21.943Z,1017.1
2018-04-06T04:08:47.426Z,1017.14
2018-04-06T04:09:12.916Z,1017.09
2018-04-06T04:09:38.408Z,1017.1
2018-04-06T04:10:03.901Z,1017.1
2018-04-06T04:10:29.395Z,1017.11
2018-04-06T04:10:54.900Z,1017.09
2018-04-06T04:11:20.408Z,1017.1
2018-04-06T04:11:45.887Z,1017.08
2018-04-06T04:12:11.387Z,1017.11
2018-04-06T04:12:36.851Z,1017.08
2018-04-06T04:13:02.343Z,1017.1
2018-04-06T04:13:27.848Z,1017.1
2018-04-06T04:13:53.340Z,1017.08
2018-04-06T04:14:18.831Z,1017.11
2018-04-06T04:14:44.314Z,1017.09
2018-04-06T04:15:09.810Z,1017.09
2018-04-06T04:15:35.315Z,1017.08
2018-04-06T04:16:00.817Z,1017.09
2018-04-06T04:16:26.317Z,1017.12
2018-04-06T04:16:51.819Z,1017.1
2018-04-06T04:17:17.310Z,1017.08
2018-04-06T04:17:42.812Z,1017.07
2018-04-06T04:18:08.313Z,1017.1
2018-04-06T04:18:33.805Z,1017.08
2018-04-06T04:18:59.304Z,1017.06
2018-04-06T04:19:24.811Z,1017.1
2018-04-06T04:19:50.309Z,1017.06
2018-04-06T04:20:15.818Z,1017.07
2018-04-06T04:20:41.304Z,1017.08
2018-04-06T04:21:06.815Z,1017.04
2018-04-06T04:21:32.310Z,1017.03
2018-04-06T04:21:57.802Z,1017.07
2018-04-06T04:22:23.295Z,1017.07
2018-04-06T04:22:48.782Z,1017.05
2018-04-06T04:23:14.279Z,1017.07
2018-04-06T04:23:39.784Z,1017.07
2018-04-06T04:24:05.276Z,1017.06
2018-04-06T04:24:30.776Z,1017.07
2018-04-06T04:24:56.282Z,1017.02
2018-04-06T04:25:21.791Z,1017.05
2018-04-06T04:25:47.290Z,1017.07
2018-04-06T04:26:12.785Z,1017.05
2018-04-06T04:26:38.285Z,1017.03
2018-04-06T04:27:46.980Z,1016.99
2018-04-06T04:28:12.504Z,1017.01
2018-04-06T04:28:38.006Z,1016.98
2018-04-06T04:29:03.498Z,1016.96
2018-04-06T04:29:28.998Z,1016.93
2018-04-06T04:29:54.497Z,1016.95
2018-04-06T04:30:19.991Z,1016.93
2018-04-06T04:30:45.499Z,1016.93
2018-04-06T04:31:10.986Z,1016.92
2018-04-06T04:31:36.485Z,1016.91
2018-04-06T04:32:01.966Z,1016.9
2018-04-06T04:32:27.460Z,1016.91
2018-04-06T04:32:52.962Z,1016.92
2018-04-06T04:33:18.461Z,1016.94
2018-04-06T04:33:43.958Z,1016.94
2018-04-06T04:34:09.453Z,1016.94
2018-04-06T04:34:34.953Z,1016.95
2018-04-06T04:35:00.462Z,1016.94
2018-04-06T04:35:25.956Z,1016.98
2018-04-06T04:35:51.448Z,1016.97
2018-04-06T04:36:16.949Z,1016.97
2018-04-06T04:36:42.447Z,1017.02
2018-04-06T04:37:07.945Z,1017.02
2018-04-06T04:37:33.443Z,1017.05
2018-04-06T04:37:58.948Z,1017.1
2018-04-06T04:38:24.436Z,1017.1
2018-04-06T04:38:49.937Z,1017.05
2018-04-06T04:39:15.438Z,1017.09
2018-04-06T04:39:40.933Z,1017.1
2018-04-06T04:40:06.431Z,1017.13
2018-04-06T04:40:31.923Z,1017.14
2018-04-06T04:40:57.422Z,1017.13
2018-04-06T04:41:22.926Z,1017.18
2018-04-06T04:41:48.418Z,1017.15
2018-04-06T04:42:13.919Z,1017.11
2018-04-06T04:42:39.404Z,1017.13
2018-04-06T04:43:04.905Z,1017.14
2018-04-06T04:43:30.408Z,1017.13
2018-04-06T04:43:55.925Z,1017.12
2018-04-06T04:44:21.422Z,1017.09
2018-04-06T04:44:46.921Z,1017.09
2018-04-06T04:45:12.418Z,1017.12
2018-04-06T04:45:37.920Z,1017.17
2018-04-06T04:46:03.418Z,1017.1
2018-04-06T04:46:28.911Z,1017.14
2018-04-06T04:46:54.409Z,1017.15
2018-04-06T04:47:19.921Z,1017.13
2018-04-06T04:47:45.413Z,1017.13
2018-04-06T04:48:10.907Z,1017.15
2018-04-06T04:48:36.409Z,1017.15
2018-04-06T04:49:01.904Z,1017.14
2018-04-06T04:49:27.398Z,1017.17
2018-04-06T04:49:52.895Z,1017.17
2018-04-06T04:50:18.384Z,1017.16
2018-04-06T04:50:43.887Z,1017.2
2018-04-06T04:51:09.393Z,1017.15
2018-04-06T04:51:34.888Z,1017.19
2018-04-06T04:52:00.388Z,1017.21
2018-04-06T04:52:25.878Z,1017.17
2018-04-06T04:52:51.406Z,1017.18
2018-04-06T04:53:16.975Z,1017.22
2018-04-06T04:53:42.445Z,1017.17
2018-04-06T04:54:07.943Z,1017.18
2018-04-06T04:54:33.479Z,1017.18
2018-04-06T04:54:58.985Z,1017.18
2018-04-06T04:55:24.494Z,1017.2
2018-04-06T04:55:49.994Z,1017.17
2018-04-06T04:56:15.484Z,1017.13
2018-04-06T04:56:40.986Z,1017.16
2018-04-06T04:57:06.491Z,1017.14
2018-04-06T04:57:31.993Z,1017.13
2018-04-06T04:57:57.494Z,1017.14
2018-04-06T04:58:22.983Z,1017.14
2018-04-06T04:58:48.486Z,1017.16
2018-04-06T04:59:13.974Z,1017.13
2018-04-06T04:59:39.469Z,1017.1
2018-04-06T05:00:04.975Z,1017.11
2018-04-06T05:00:30.477Z,1017.11
2018-04-06T05:00:55.975Z,1017.11
2018-04-06T05:01:21.468Z,1017.15
2018-04-06T05:01:46.967Z,1017.16
2018-04-06T05:02:12.461Z,1017.15
2018-04-06T05:02:37.950Z,1017.14
2018-04-06T05:03:03.445Z,1017.13
2018-04-06T05:03:28.947Z,1017.11
2018-04-06T05:03:54.455Z,1017.18
2018-04-06T05:04:19.953Z,1017.14
2018-04-06T05:04:45.450Z,1017.11
2018-04-06T05:05:10.953Z,1017.12
2018-04-06T05:05:36.451Z,1017.15
2018-04-06T05:06:01.943Z,1017.13
2018-04-06T05:06:27.456Z,1017.13
2018-04-06T05:06:52.991Z,1017.11
2018-04-06T05:07:18.601Z,1017.14
2018-04-06T05:07:44.665Z,1017.11
2018-04-06T05:08:10.143Z,1017.12
2018-04-06T05:08:35.621Z,1017.11
2018-04-06T05:09:01.124Z,1017.09
2018-04-06T05:09:26.620Z,1017.1
2018-04-06T05:09:52.116Z,1017.12
2018-04-06T05:10:17.621Z,1017.1
2018-04-06T05:10:43.134Z,1017.12
2018-04-06T05:11:08.624Z,1017.11
2018-04-06T05:11:34.124Z,1017.14
2018-04-06T05:11:59.621Z,1017.16
2018-04-06T05:12:25.118Z,1017.2
2018-04-06T05:12:50.608Z,1017.13
2018-04-06T05:13:16.114Z,1017.16
2018-04-06T05:13:41.611Z,1017.16
2018-04-06T05:14:07.112Z,1017.17
2018-04-06T05:14:32.658Z,1017.14
2018-04-06T05:14:58.146Z,1017.17
2018-04-06T05:15:23.641Z,1017.12
2018-04-06T05:15:49.129Z,1017.13
2018-04-06T05:16:14.619Z,1017.16
2018-04-06T05:16:40.116Z,1017.15
2018-04-06T05:17:06.185Z,1017.16
2018-04-06T05:17:31.716Z,1017.18
2018-04-06T05:17:57.178Z,1017.15
2018-04-06T05:18:22.683Z,1017.15
2018-04-06T05:18:48.173Z,1017.16
2018-04-06T05:19:13.667Z,1017.16
2018-04-06T05:19:39.141Z,1017.14
2018-04-06T05:20:04.678Z,1017.12
2018-04-06T05:20:30.196Z,1017.1
2018-04-06T05:20:55.688Z,1017.13
2018-04-06T05:21:21.175Z,1017.1
2018-04-06T05:21:46.658Z,1017.15
2018-04-06T05:22:12.162Z,1017.16
2018-04-06T05:22:37.633Z,1017.14
2018-04-06T05:23:03.121Z,1017.12
2018-04-06T05:23:28.616Z,1017.16
2018-04-06T05:23:54.116Z,1017.12
2018-04-06T05:24:19.621Z,1017.19
2018-04-06T05:24:45.124Z,1017.2
2018-04-06T05:25:10.634Z,1017.2
2018-04-06T05:25:36.124Z,1017.16
2018-04-06T05:26:01.619Z,1017.18
2018-04-06T05:26:27.092Z,1017.2
2018-04-06T05:26:52.582Z,1017.23
2018-04-06T05:27:18.076Z,1017.17
2018-04-06T05:27:43.573Z,1017.18
2018-04-06T05:28:09.056Z,1017.18
2018-04-06T05:28:34.527Z,1017.17
2018-04-06T05:29:00.043Z,1017.13
2018-04-06T05:29:25.532Z,1017.1
2018-04-06T05:29:51.036Z,1017.11
2018-04-06T05:30:16.522Z,1017.11
2018-04-06T05:30:42.011Z,1017.09
2018-04-06T05:31:07.506Z,1017.1
2018-04-06T05:31:33.027Z,1017.09
2018-04-06T05:31:58.525Z,1017.03
2018-04-06T05:32:24.044Z,1017.1
2018-04-06T05:32:49.518Z,1017.01
2018-04-06T05:33:15.021Z,1017.05
2018-04-06T05:33:40.529Z,1017.02
2018-04-06T05:34:06.030Z,1017.04
2018-04-06T05:34:31.525Z,1017.05
2018-04-06T05:34:57.022Z,1017.04
2018-04-06T05:35:22.517Z,1017.02
2018-04-06T05:35:48.018Z,1017.07
2018-04-06T05:36:13.515Z,1017.04
2018-04-06T05:36:39.017Z,1017.08
2018-04-06T05:37:04.514Z,1017.09
2018-04-06T05:37:30.050Z,1017.06
2018-04-06T05:37:55.503Z,1017.05
2018-04-06T05:38:21.006Z,1017.08
2018-04-06T05:38:46.593Z,1017.08
2018-04-06T05:39:11.999Z,1017.05
2018-04-06T05:39:37.493Z,1017.07
2018-04-06T05:40:02.995Z,1017.04
2018-04-06T05:40:28.501Z,1017.08
2018-04-06T05:40:53.996Z,1017.07
2018-04-06T05:41:19.498Z,1017.04
2018-04-06T05:41:44.994Z,1017.07
2018-04-06T05:42:10.493Z,1017.09
2018-04-06T05:42:35.994Z,1017.11
2018-04-06T05:43:01.494Z,1017.03
2018-04-06T05:43:26.986Z,1017.05
2018-04-06T05:43:52.485Z,1017.01
2018-04-06T05:44:17.983Z,1017.03
2018-04-06T05:44:43.483Z,1017.03
2018-04-06T05:45:08.981Z,1017.02
2018-04-06T05:45:34.485Z,1017.02
2018-04-06T05:45:59.984Z,1017.01
2018-04-06T05:46:25.491Z,1016.99
2018-04-06T05:46:50.984Z,1017.03
2018-04-06T05:47:16.486Z,1017.06
2018-04-06T05:47:42.030Z,1016.99
2018-04-06T05:48:07.548Z,1017.04
2018-04-06T05:48:33.053Z,1017.03
2018-04-06T05:48:58.553Z,1017.06
2018-04-06T05:49:24.070Z,1017.01
2018-04-06T05:49:49.568Z,1017.07
2018-04-06T05:50:15.058Z,1017.07
2018-04-06T05:50:40.552Z,1017.09
2018-04-06T05:51:06.056Z,1017.11
2018-04-06T05:51:31.554Z,1017.09
2018-04-06T05:51:57.057Z,1017.07
2018-04-06T05:52:22.556Z,1017.08
2018-04-06T05:52:48.052Z,1017.06
2018-04-06T05:53:13.556Z,1017.09
2018-04-06T05:53:39.044Z,1017.04
2018-04-06T05:54:04.549Z,1017.08
2018-04-06T05:54:30.060Z,1017.05
2018-04-06T05:54:55.558Z,1017.1
2018-04-06T05:55:21.064Z,1017.11
2018-04-06T05:55:46.566Z,1017.08
2018-04-06T05:56:12.116Z,1017.11
2018-04-06T05:56:37.628Z,1017.16
2018-04-06T05:57:03.120Z,1017.14
2018-04-06T05:57:28.620Z,1017.12
2018-04-06T05:57:54.116Z,1017.1
2018-04-06T05:58:19.652Z,1017.21
2018-04-06T05:58:45.115Z,1017.15
2018-04-06T05:59:10.612Z,1017.17
2018-04-06T05:59:36.110Z,1017.17
2018-04-06T06:00:01.614Z,1017.14
2018-04-06T06:00:27.114Z,1017.18
2018-04-06T06:00:52.614Z,1017.15
2018-04-06T06:01:18.110Z,1017.11
2018-04-06T06:01:43.615Z,1017.17
2018-04-06T06:02:09.114Z,1017.14
2018-04-06T06:02:34.612Z,1017.17
2018-04-06T06:03:00.121Z,1017.16
2018-04-06T06:03:25.619Z,1017.17
2018-04-06T06:03:51.122Z,1017.18
2018-04-06T06:04:16.631Z,1017.18
2018-04-06T06:04:42.129Z,1017.17
2018-04-06T06:05:07.614Z,1017.19
2018-04-06T06:05:33.109Z,1017.21
2018-04-06T06:05:58.610Z,1017.16
2018-04-06T06:06:24.115Z,1017.19
2018-04-06T06:06:49.612Z,1017.18
2018-04-06T06:07:15.112Z,1017.17
2018-04-06T06:07:40.610Z,1017.2
2018-04-06T06:08:06.107Z,1017.2
2018-04-06T06:08:31.609Z,1017.26
2018-04-06T06:08:57.112Z,1017.23
2018-04-06T06:09:22.607Z,1017.24
2018-04-06T06:09:48.164Z,1017.22
2018-04-06T06:10:13.613Z,1017.25
2018-04-06T06:10:39.122Z,1017.29
2018-04-06T06:11:04.624Z,1017.28
2018-04-06T06:11:30.133Z,1017.28
2018-04-06T06:11:55.629Z,1017.27
2018-04-06T06:12:21.124Z,1017.32
2018-04-06T06:12:46.628Z,1017.26
2018-04-06T06:13:12.133Z,1017.29
2018-04-06T06:13:37.638Z,1017.24
2018-04-06T06:14:03.130Z,1017.23
2018-04-06T06:14:28.634Z,1017.23
2018-04-06T06:14:54.127Z,1017.26
2018-04-06T06:15:19.622Z,1017.27
2018-04-06T06:15:45.134Z,1017.28
2018-04-06T06:16:10.645Z,1017.23
2018-04-06T06:16:36.135Z,1017.25
2018-04-06T06:17:01.636Z,1017.27
2018-04-06T06:17:27.141Z,1017.26
2018-04-06T06:17:52.745Z,1017.28
2018-04-06T06:18:18.139Z,1017.28
2018-04-06T06:18:43.646Z,1017.27
2018-04-06T06:19:09.145Z,1017.27
2018-04-06T06:19:34.639Z,1017.23
2018-04-06T06:20:00.149Z,1017.26
2018-04-06T06:20:25.638Z,1017.24
2018-04-06T06:20:51.155Z,1017.26
2018-04-06T06:21:16.626Z,1017.22
2018-04-06T06:21:42.119Z,1017.21
2018-04-06T06:22:07.609Z,1017.23
2018-04-06T06:22:33.108Z,1017.24
2018-04-06T06:22:58.607Z,1017.26
2018-04-06T06:23:24.104Z,1017.22
2018-04-06T06:23:49.590Z,1017.23
2018-04-06T06:24:15.077Z,1017.22
2018-04-06T06:24:40.594Z,1017.23
2018-04-06T06:25:06.087Z,1017.25
2018-04-06T06:25:31.589Z,1017.24
2018-04-06T06:25:57.095Z,1017.24
2018-04-06T06:26:22.591Z,1017.23
2018-04-06T06:26:48.094Z,1017.24
2018-04-06T06:27:13.590Z,1017.24
2018-04-06T06:27:39.082Z,1017.21
2018-04-06T06:28:04.574Z,1017.21
2018-04-06T06:28:30.074Z,1017.25
2018-04-06T06:28:55.582Z,1017.23
2018-04-06T06:29:21.080Z,1017.22
2018-04-06T06:29:46.579Z,1017.24
2018-04-06T06:30:12.080Z,1017.2
2018-04-06T06:30:37.571Z,1017.21
2018-04-06T06:31:03.054Z,1017.26
2018-04-06T06:31:28.543Z,1017.27
2018-04-06T06:31:54.039Z,1017.26
2018-04-06T06:32:19.540Z,1017.25
2018-04-06T06:32:45.035Z,1017.21
2018-04-06T06:33:10.536Z,1017.21
2018-04-06T06:33:36.036Z,1017.24
2018-04-06T06:34:01.529Z,1017.22
2018-04-06T06:34:27.026Z,1017.26
2018-04-06T06:34:52.532Z,1017.27
2018-04-06T06:35:18.026Z,1017.27
2018-04-06T06:35:43.529Z,1017.27
2018-04-06T06:36:09.034Z,1017.25
2018-04-06T06:36:34.535Z,1017.24
2018-04-06T06:37:00.031Z,1017.26
2018-04-06T06:37:25.531Z,1017.24
2018-04-06T06:37:51.032Z,1017.23
2018-04-06T06:38:16.521Z,1017.29
2018-04-06T06:38:42.052Z,1017.22
2018-04-06T06:39:07.541Z,1017.27
2018-04-06T06:39:33.041Z,1017.25
2018-04-06T06:39:58.525Z,1017.27
2018-04-06T06:40:24.003Z,1017.23
2018-04-06T06:40:49.499Z,1017.23
2018-04-06T06:41:14.991Z,1017.25
2018-04-06T06:41:40.516Z,1017.26
2018-04-06T06:42:05.998Z,1017.22
2018-04-06T06:42:31.489Z,1017.19
2018-04-06T06:42:57.081Z,1017.22
2018-04-06T06:43:22.491Z,1017.2
2018-04-06T06:43:47.992Z,1017.2
2018-04-06T06:44:13.487Z,1017.22
2018-04-06T06:44:38.992Z,1017.25
2018-04-06T06:45:04.484Z,1017.23
2018-04-06T06:45:29.988Z,1017.19
2018-04-06T06:45:55.479Z,1017.23
2018-04-06T06:46:20.974Z,1017.26
2018-04-06T06:46:46.460Z,1017.21
2018-04-06T06:47:11.946Z,1017.23
2018-04-06T06:47:37.471Z,1017.19
2018-04-06T06:48:02.968Z,1017.18
2018-04-06T06:48:28.508Z,1017.16
2018-04-06T06:48:53.961Z,1017.19
2018-04-06T06:49:19.456Z,1017.16
2018-04-06T06:49:44.960Z,1017.14
2018-04-06T06:50:10.468Z,1017.15
2018-04-06T06:50:35.966Z,1017.15
2018-04-06T06:51:01.453Z,1017.13
2018-04-06T06:51:26.954Z,1017.15
2018-04-06T06:51:52.442Z,1017.14
2018-04-06T06:52:17.944Z,1017.12
2018-04-06T06:52:43.436Z,1017.1
2018-04-06T06:53:08.942Z,1017.05
2018-04-06T06:53:34.437Z,1017.05
2018-04-06T06:53:59.930Z,1017.04
2018-04-06T06:54:25.426Z,1017.02
2018-04-06T06:54:50.931Z,1017.01
2018-04-06T06:55:16.431Z,1016.99
2018-04-06T06:55:41.928Z,1017
2018-04-06T06:56:07.426Z,1016.96
2018-04-06T06:56:32.921Z,1017.01
2018-04-06T06:56:58.420Z,1017
2018-04-06T06:57:23.918Z,1016.99
2018-04-06T06:57:49.408Z,1016.97
2018-04-06T06:58:14.916Z,1016.92
2018-04-06T06:58:40.422Z,1016.92
2018-04-06T06:59:05.930Z,1016.92
2018-04-06T06:59:31.422Z,1016.89
2018-04-06T06:59:56.907Z,1016.88
2018-04-06T07:00:22.403Z,1016.9
2018-04-06T07:00:47.906Z,1016.91
2018-04-06T07:01:13.430Z,1016.91
2018-04-06T07:01:38.903Z,1016.9
2018-04-06T07:02:04.393Z,1016.91
2018-04-06T07:02:29.884Z,1016.92
2018-04-06T07:02:55.389Z,1016.92
2018-04-06T07:03:20.873Z,1016.94
2018-04-06T07:03:46.372Z,1016.91
2018-04-06T07:04:11.874Z,1016.88
2018-04-06T07:04:37.364Z,1016.91
2018-04-06T07:05:02.861Z,1016.95
2018-04-06T07:05:28.337Z,1016.92
2018-04-06T07:05:53.879Z,1016.9
2018-04-06T07:06:19.403Z,1016.91
2018-04-06T07:06:44.901Z,1016.9
2018-04-06T07:07:10.394Z,1016.95
2018-04-06T07:07:35.903Z,1016.96
2018-04-06T07:08:01.409Z,1016.84
2018-04-06T07:08:26.937Z,1016.86
2018-04-06T07:08:52.415Z,1016.85
2018-04-06T07:09:17.919Z,1016.81
2018-04-06T07:09:43.417Z,1016.85
2018-04-06T07:10:08.926Z,1016.84
2018-04-06T07:10:34.412Z,1016.86
2018-04-06T07:10:59.924Z,1016.87
2018-04-06T07:11:25.389Z,1016.89
2018-04-06T07:11:50.860Z,1016.86
2018-04-06T07:12:16.378Z,1016.85
2018-04-06T07:12:41.875Z,1016.87
2018-04-06T07:13:07.418Z,1016.85
2018-04-06T07:13:32.908Z,1016.82
2018-04-06T07:13:58.421Z,1016.84
2018-04-06T07:14:24.032Z,1016.82
2018-04-06T07:14:49.571Z,1016.74
2018-04-06T07:15:15.164Z,1016.78
2018-04-06T07:15:40.690Z,1016.76
2018-04-06T07:16:06.199Z,1016.74
2018-04-06T07:16:31.731Z,1016.77
2018-04-06T07:16:57.215Z,1016.78
2018-04-06T07:17:22.697Z,1016.75
2018-04-06T07:17:48.182Z,1016.76
2018-04-06T07:18:13.676Z,1016.8
2018-04-06T07:18:39.201Z,1016.73
2018-04-06T07:19:04.696Z,1016.69
2018-04-06T07:19:30.197Z,1016.76
2018-04-06T07:19:55.693Z,1016.74
2018-04-06T07:20:21.185Z,1016.75
2018-04-06T07:20:46.668Z,1016.77
2018-04-06T07:21:12.173Z,1016.76
2018-04-06T07:21:37.689Z,1016.76
2018-04-06T07:22:03.172Z,1016.76
2018-04-06T07:22:28.664Z,1016.76
2018-04-06T07:22:54.157Z,1016.73
2018-04-06T07:23:19.645Z,1016.76
2018-04-06T07:23:45.156Z,1016.73
2018-04-06T07:24:10.688Z,1016.7
2018-04-06T07:24:36.173Z,1016.71
2018-04-06T07:25:01.708Z,1016.73
2018-04-06T07:25:27.213Z,1016.72
2018-04-06T07:25:52.729Z,1016.8
2018-04-06T07:26:18.220Z,1016.72
2018-04-06T07:26:43.722Z,1016.72
2018-04-06T07:27:09.218Z,1016.74
2018-04-06T07:27:34.729Z,1016.76
2018-04-06T07:28:00.235Z,1016.76
2018-04-06T07:28:25.739Z,1016.74
2018-04-06T07:28:51.255Z,1016.73
2018-04-06T07:29:16.740Z,1016.74
2018-04-06T07:29:42.235Z,1016.71
2018-04-06T07:30:07.735Z,1016.72
2018-04-06T07:30:33.232Z,1016.68
2018-04-06T07:30:58.728Z,1016.69
2018-04-06T07:31:24.225Z,1016.72
2018-04-06T07:31:49.719Z,1016.7
2018-04-06T07:32:15.220Z,1016.72
2018-04-06T07:32:40.731Z,1016.7
2018-04-06T07:33:06.226Z,1016.7
2018-04-06T07:33:31.747Z,1016.7
2018-04-06T07:33:57.240Z,1016.63
2018-04-06T07:34:22.750Z,1016.61
2018-04-06T07:34:48.237Z,1016.61
2018-04-06T07:35:13.740Z,1016.64
2018-04-06T07:35:39.232Z,1016.64
2018-04-06T07:36:04.713Z,1016.64
2018-04-06T07:36:30.218Z,1016.65
2018-04-06T07:36:55.723Z,1016.62
2018-04-06T07:37:21.220Z,1016.63
2018-04-06T07:37:46.730Z,1016.58
2018-04-06T07:38:12.206Z,1016.58
2018-04-06T07:38:37.716Z,1016.6
2018-04-06T07:39:03.194Z,1016.57
2018-04-06T07:39:28.696Z,1016.57
2018-04-06T07:39:54.195Z,1016.59
2018-04-06T07:40:19.697Z,1016.57
2018-04-06T07:40:45.186Z,1016.54
2018-04-06T07:41:10.688Z,1016.56
2018-04-06T07:41:36.203Z,1016.58
2018-04-06T07:42:01.690Z,1016.49
2018-04-06T07:42:27.201Z,1016.52
2018-04-06T07:42:52.706Z,1016.54
2018-04-06T07:43:18.229Z,1016.52
2018-04-06T07:43:43.768Z,1016.51
2018-04-06T07:44:09.304Z,1016.55
2018-04-06T07:44:34.775Z,1016.59
2018-04-06T07:45:00.273Z,1016.55
2018-04-06T07:45:25.770Z,1016.7
2018-04-06T07:45:51.298Z,1016.57
2018-04-06T07:46:16.785Z,1016.54
2018-04-06T07:46:42.278Z,1016.57
2018-04-06T07:47:07.772Z,1016.63
2018-04-06T07:47:33.264Z,1016.59
2018-04-06T07:47:58.770Z,1016.57
2018-04-06T07:48:24.272Z,1016.59
2018-04-06T07:48:49.769Z,1016.57
2018-04-06T07:49:15.270Z,1016.55
2018-04-06T07:49:40.770Z,1016.6
2018-04-06T07:50:06.256Z,1016.63
2018-04-06T07:50:31.759Z,1016.58
2018-04-06T07:50:57.257Z,1016.63
2018-04-06T07:51:22.769Z,1016.6
2018-04-06T07:51:48.276Z,1016.61
2018-04-06T07:52:13.763Z,1016.6
2018-04-06T07:53:22.484Z,1016.6
2018-04-06T07:53:47.990Z,1016.57
2018-04-06T07:54:13.494Z,1016.61
2018-04-06T07:54:38.988Z,1016.62
2018-04-06T07:55:04.510Z,1016.59
2018-04-06T07:55:30.007Z,1016.59
2018-04-06T07:55:55.506Z,1016.64
2018-04-06T07:56:22.344Z,1016.58
2018-04-06T07:56:46.500Z,1016.6
2018-04-06T07:57:12.000Z,1016.66
2018-04-06T07:57:37.517Z,1016.66
2018-04-06T07:58:03.012Z,1016.59
2018-04-06T07:58:28.509Z,1016.62
2018-04-06T07:58:53.995Z,1016.6
2018-04-06T07:59:19.506Z,1016.59
2018-04-06T07:59:45.021Z,1016.64
2018-04-06T08:00:10.515Z,1016.61
2018-04-06T08:00:36.018Z,1016.64
2018-04-06T08:01:01.502Z,1016.6
2018-04-06T08:01:26.995Z,1016.59
2018-04-06T08:01:52.498Z,1016.58
2018-04-06T08:02:17.982Z,1016.57
2018-04-06T08:02:43.490Z,1016.58
2018-04-06T08:03:08.973Z,1016.64
2018-04-06T08:03:34.470Z,1016.66
2018-04-06T08:03:59.956Z,1016.57
2018-04-06T08:04:25.460Z,1016.55
2018-04-06T08:04:50.951Z,1016.57
2018-04-06T08:05:16.435Z,1016.6
2018-04-06T08:05:41.938Z,1016.65
2018-04-06T08:06:07.438Z,1016.63
2018-04-06T08:06:32.940Z,1016.59
2018-04-06T08:06:58.456Z,1016.5
2018-04-06T08:07:23.941Z,1016.59
2018-04-06T08:07:49.425Z,1016.6
2018-04-06T08:08:14.930Z,1016.61
2018-04-06T08:08:40.423Z,1016.64
2018-04-06T08:09:05.928Z,1016.61
2018-04-06T08:09:31.463Z,1016.6
2018-04-06T08:09:56.926Z,1016.63
2018-04-06T08:10:22.492Z,1016.61
2018-04-06T08:10:47.965Z,1016.65
2018-04-06T08:11:13.474Z,1016.57
2018-04-06T08:11:38.963Z,1016.68
2018-04-06T08:12:04.455Z,1016.64
2018-04-06T08:12:29.948Z,1016.69
2018-04-06T08:12:55.439Z,1016.57
2018-04-06T08:13:20.919Z,1016.78
2018-04-06T08:13:46.425Z,1016.63
2018-04-06T08:14:11.933Z,1016.71
2018-04-06T08:14:37.414Z,1016.66
2018-04-06T08:15:02.923Z,1016.69
2018-04-06T08:15:28.430Z,1016.69
2018-04-06T08:15:53.920Z,1016.64
2018-04-06T08:16:19.413Z,1016.69
2018-04-06T08:16:44.905Z,1016.71
2018-04-06T08:17:10.417Z,1016.7
2018-04-06T08:17:35.910Z,1016.72
2018-04-06T08:18:01.404Z,1016.7
2018-04-06T08:18:26.873Z,1016.65
2018-04-06T08:18:52.378Z,1016.63
2018-04-06T08:19:17.871Z,1016.62
2018-04-06T08:19:43.369Z,1016.61
2018-04-06T08:20:08.863Z,1016.6
2018-04-06T08:20:34.352Z,1016.61
2018-04-06T08:20:59.858Z,1016.59
2018-04-06T08:21:25.367Z,1016.65
2018-04-06T08:21:50.848Z,1016.59
2018-04-06T08:22:16.329Z,1016.62
2018-04-06T08:22:41.829Z,1016.66
2018-04-06T08:23:07.317Z,1016.58
2018-04-06T08:23:32.788Z,1016.64
2018-04-06T08:23:58.306Z,1016.59
2018-04-06T08:24:23.804Z,1016.59
2018-04-06T08:24:49.301Z,1016.65
2018-04-06T08:25:14.813Z,1016.61
2018-04-06T08:25:40.318Z,1016.59
2018-04-06T08:26:05.821Z,1016.63
2018-04-06T08:26:31.316Z,1016.64
2018-04-06T08:26:56.818Z,1016.58
2018-04-06T08:27:22.316Z,1016.6
2018-04-06T08:27:47.827Z,1016.56
2018-04-06T08:28:13.323Z,1016.56
2018-04-06T08:28:38.841Z,1016.56
2018-04-06T08:29:04.348Z,1016.54
2018-04-06T08:29:29.861Z,1016.64
2018-04-06T08:29:55.353Z,1016.51
2018-04-06T08:30:20.853Z,1016.54
2018-04-06T08:30:46.338Z,1016.56
2018-04-06T08:31:11.833Z,1016.58
2018-04-06T08:31:37.334Z,1016.58
2018-04-06T08:32:02.832Z,1016.56
2018-04-06T08:32:28.331Z,1016.55
2018-04-06T08:32:53.826Z,1016.54
2018-04-06T08:33:19.323Z,1016.52
2018-04-06T08:33:44.824Z,1016.55
2018-04-06T08:34:10.335Z,1016.59
2018-04-06T08:34:35.840Z,1016.58
2018-04-06T08:35:01.343Z,1016.61
2018-04-06T08:35:26.816Z,1016.57
2018-04-06T08:35:52.310Z,1016.57
2018-04-06T08:36:17.792Z,1016.62
2018-04-06T08:36:43.279Z,1016.61
2018-04-06T08:37:08.780Z,1016.61
2018-04-06T08:37:34.276Z,1016.58
2018-04-06T08:37:59.777Z,1016.54
2018-04-06T08:38:25.285Z,1016.57
2018-04-06T08:38:50.781Z,1016.53
2018-04-06T08:39:16.288Z,1016.56
2018-04-06T08:39:41.802Z,1016.58
2018-04-06T08:40:07.297Z,1016.52
2018-04-06T08:40:32.801Z,1016.49
2018-04-06T08:40:58.294Z,1016.5
2018-04-06T08:41:23.790Z,1016.49
2018-04-06T08:41:49.286Z,1016.51
2018-04-06T08:42:14.799Z,1016.5
2018-04-06T08:42:40.286Z,1016.52
2018-04-06T08:43:05.795Z,1016.51
2018-04-06T08:43:31.282Z,1016.56
2018-04-06T08:43:56.777Z,1016.46
2018-04-06T08:44:22.282Z,1016.61
2018-04-06T08:44:47.797Z,1016.53
2018-04-06T08:45:13.307Z,1016.53
2018-04-06T08:45:38.800Z,1016.53
2018-04-06T08:46:04.292Z,1016.58
2018-04-06T08:46:29.781Z,1016.61
2018-04-06T08:46:55.288Z,1016.62
2018-04-06T08:47:20.776Z,1016.57
2018-04-06T08:47:46.272Z,1016.5
2018-04-06T08:48:11.765Z,1016.56
2018-04-06T08:48:37.263Z,1016.64
2018-04-06T08:49:02.759Z,1016.59
2018-04-06T08:49:28.268Z,1016.6
2018-04-06T08:49:53.765Z,1016.66
2018-04-06T08:50:19.256Z,1016.62
2018-04-06T08:50:44.762Z,1016.55
2018-04-06T08:51:10.259Z,1016.58
2018-04-06T08:51:35.755Z,1016.55
2018-04-06T08:52:01.254Z,1016.54
2018-04-06T08:52:26.757Z,1016.56
2018-04-06T08:52:52.240Z,1016.53
2018-04-06T08:53:17.732Z,1016.51
2018-04-06T08:53:43.270Z,1016.45
2018-04-06T08:54:08.794Z,1016.5
2018-04-06T08:54:34.334Z,1016.52
2018-04-06T08:54:59.853Z,1016.53
2018-04-06T08:55:25.383Z,1016.49
2018-04-06T08:55:50.920Z,1016.53
2018-04-06T08:56:16.462Z,1016.56
2018-04-06T08:56:41.964Z,1016.47
2018-04-06T08:57:07.473Z,1016.43
2018-04-06T08:57:33.000Z,1016.41
2018-04-06T08:57:58.519Z,1016.51
2018-04-06T08:58:24.043Z,1016.47
2018-04-06T08:58:49.544Z,1016.49
2018-04-06T08:59:15.054Z,1016.45
2018-04-06T08:59:40.554Z,1016.45
2018-04-06T09:00:06.057Z,1016.41
2018-04-06T09:00:31.559Z,1016.42
2018-04-06T09:00:57.099Z,1016.43
2018-04-06T09:01:22.712Z,1016.44
2018-04-06T09:01:48.214Z,1016.36
2018-04-06T09:02:13.717Z,1016.38
2018-04-06T09:02:39.280Z,1016.41
2018-04-06T09:03:04.830Z,1016.41
2018-04-06T09:03:30.318Z,1016.37
2018-04-06T09:03:55.974Z,1016.43
2018-04-06T09:04:21.540Z,1016.39
2018-04-06T09:04:47.091Z,1016.35
2018-04-06T09:05:12.572Z,1016.45
2018-04-06T09:05:38.131Z,1016.39
2018-04-06T09:06:03.644Z,1016.32
2018-04-06T09:06:29.132Z,1016.37
2018-04-06T09:06:54.649Z,1016.34
2018-04-06T09:07:20.165Z,1016.29
2018-04-06T09:07:45.685Z,1016.28
2018-04-06T09:08:11.181Z,1016.32
2018-04-06T09:08:36.642Z,1016.33
2018-04-06T09:09:02.141Z,1016.32
2018-04-06T09:09:27.674Z,1016.27
2018-04-06T09:09:53.143Z,1016.3
2018-04-06T09:10:18.678Z,1016.31
2018-04-06T09:10:44.171Z,1016.36
2018-04-06T09:11:09.661Z,1016.28
2018-04-06T09:11:35.262Z,1016.28